sensor_id;sensor_type;location;lat;lon;timestamp;P1;durP1;ratioP1;P2;durP2;ratioP2
47784;SDS011;35233;55.686;37.848;2023-01-29T00:01:52;13.65;;;9.10;;
47784;SDS011;35233;55.686;37.848;2023-01-29T00:04:17;13.05;;;9.27;;
47784;SDS011;35233;55.686;37.848;2023-01-29T00:06:43;13.27;;;9.00;;
47784;SDS011;35233;55.686;37.848;2023-01-29T00:09:09;11.95;;;8.70;;
47784;SDS011;35233;55.686;37.848;2023-01-29T00:11:35;12.93;;;8.95;;
47784;SDS011;35233;55.686;37.848;2023-01-29T00:14:00;13.52;;;9.25;;
47784;SDS011;35233;55.686;37.848;2023-01-29T00:16:26;13.38;;;8.70;;
47784;SDS011;35233;55.686;37.848;2023-01-29T00:18:51;13.45;;;9.25;;
47784;SDS011;35233;55.686;37.848;2023-01-29T00:21:18;13.05;;;9.45;;
47784;SDS011;35233;55.686;37.848;2023-01-29T00:23:45;16.25;;;10.00;;
47784;SDS011;35233;55.686;37.848;2023-01-29T00:26:11;13.50;;;9.13;;
47784;SDS011;35233;55.686;37.848;2023-01-29T00:28:37;14.00;;;9.43;;
47784;SDS011;35233;55.686;37.848;2023-01-29T00:31:12;14.38;;;9.85;;
47784;SDS011;35233;55.686;37.848;2023-01-29T00:33:39;13.73;;;9.18;;
47784;SDS011;35233;55.686;37.848;2023-01-29T00:36:06;15.35;;;9.80;;
47784;SDS011;35233;55.686;37.848;2023-01-29T00:38:34;15.65;;;10.55;;
47784;SDS011;35233;55.686;37.848;2023-01-29T00:41:07;14.07;;;10.23;;
47784;SDS011;35233;55.686;37.848;2023-01-29T00:43:52;16.17;;;10.70;;
47784;SDS011;35233;55.686;37.848;2023-01-29T00:46:36;15.65;;;10.18;;
47784;SDS011;35233;55.686;37.848;2023-01-29T00:49:02;14.32;;;9.45;;
47784;SDS011;35233;55.686;37.848;2023-01-29T00:51:28;14.98;;;10.02;;
47784;SDS011;35233;55.686;37.848;2023-01-29T00:53:53;15.48;;;9.57;;
47784;SDS011;35233;55.686;37.848;2023-01-29T00:56:22;13.40;;;9.75;;
47784;SDS011;35233;55.686;37.848;2023-01-29T00:58:49;13.20;;;8.77;;
47784;SDS011;35233;55.686;37.848;2023-01-29T01:01:14;15.10;;;9.13;;
47784;SDS011;35233;55.686;37.848;2023-01-29T01:03:39;15.13;;;9.52;;
47784;SDS011;35233;55.686;37.848;2023-01-29T01:06:07;16.10;;;9.18;;
47784;SDS011;35233;55.686;37.848;2023-01-29T01:08:35;13.88;;;8.95;;
47784;SDS011;35233;55.686;37.848;2023-01-29T01:11:19;12.95;;;9.00;;
47784;SDS011;35233;55.686;37.848;2023-01-29T01:13:45;12.55;;;8.23;;
47784;SDS011;35233;55.686;37.848;2023-01-29T01:16:11;13.43;;;8.70;;
47784;SDS011;35233;55.686;37.848;2023-01-29T01:18:38;12.73;;;9.13;;
47784;SDS011;35233;55.686;37.848;2023-01-29T01:21:04;12.00;;;8.25;;
47784;SDS011;35233;55.686;37.848;2023-01-29T01:23:30;11.90;;;8.02;;
47784;SDS011;35233;55.686;37.848;2023-01-29T01:25:55;12.30;;;8.60;;
47784;SDS011;35233;55.686;37.848;2023-01-29T01:28:21;11.30;;;7.82;;
47784;SDS011;35233;55.686;37.848;2023-01-29T01:30:46;13.63;;;8.05;;
47784;SDS011;35233;55.686;37.848;2023-01-29T01:33:12;13.55;;;7.68;;
47784;SDS011;35233;55.686;37.848;2023-01-29T01:35:38;11.13;;;7.80;;
47784;SDS011;35233;55.686;37.848;2023-01-29T01:38:05;11.57;;;7.68;;
47784;SDS011;35233;55.686;37.848;2023-01-29T01:40:30;11.93;;;7.47;;
47784;SDS011;35233;55.686;37.848;2023-01-29T01:42:57;10.32;;;6.82;;
47784;SDS011;35233;55.686;37.848;2023-01-29T01:45:27;10.38;;;7.03;;
47784;SDS011;35233;55.686;37.848;2023-01-29T01:47:56;10.95;;;7.32;;
47784;SDS011;35233;55.686;37.848;2023-01-29T01:50:37;11.45;;;6.80;;
47784;SDS011;35233;55.686;37.848;2023-01-29T01:55:42;10.98;;;7.03;;
47784;SDS011;35233;55.686;37.848;2023-01-29T02:00:42;10.05;;;6.90;;
47784;SDS011;35233;55.686;37.848;2023-01-29T02:03:07;10.85;;;7.47;;
47784;SDS011;35233;55.686;37.848;2023-01-29T02:05:53;11.45;;;6.78;;
47784;SDS011;35233;55.686;37.848;2023-01-29T02:11:30;10.20;;;7.35;;
47784;SDS011;35233;55.686;37.848;2023-01-29T02:13:55;9.48;;;6.35;;
47784;SDS011;35233;55.686;37.848;2023-01-29T02:16:21;10.05;;;7.05;;
47784;SDS011;35233;55.686;37.848;2023-01-29T02:18:48;8.25;;;6.35;;
47784;SDS011;35233;55.686;37.848;2023-01-29T02:27:18;10.70;;;7.57;;
47784;SDS011;35233;55.686;37.848;2023-01-29T02:30:02;9.82;;;6.68;;
47784;SDS011;35233;55.686;37.848;2023-01-29T02:32:38;9.30;;;6.40;;
47784;SDS011;35233;55.686;37.848;2023-01-29T02:35:25;8.60;;;6.05;;
47784;SDS011;35233;55.686;37.848;2023-01-29T02:38:13;9.20;;;5.60;;
47784;SDS011;35233;55.686;37.848;2023-01-29T02:41:12;7.80;;;5.72;;
47784;SDS011;35233;55.686;37.848;2023-01-29T02:43:47;8.18;;;5.63;;
47784;SDS011;35233;55.686;37.848;2023-01-29T02:46:31;8.30;;;5.68;;
47784;SDS011;35233;55.686;37.848;2023-01-29T02:54:21;7.15;;;5.18;;
47784;SDS011;35233;55.686;37.848;2023-01-29T02:56:55;6.78;;;4.90;;
47784;SDS011;35233;55.686;37.848;2023-01-29T02:59:28;7.75;;;5.22;;
47784;SDS011;35233;55.686;37.848;2023-01-29T03:02:01;6.57;;;4.80;;
47784;SDS011;35233;55.686;37.848;2023-01-29T03:04:32;5.95;;;4.38;;
47784;SDS011;35233;55.686;37.848;2023-01-29T03:07:04;6.03;;;4.50;;
47784;SDS011;35233;55.686;37.848;2023-01-29T03:09:44;8.13;;;4.68;;
47784;SDS011;35233;55.686;37.848;2023-01-29T03:12:16;5.88;;;4.30;;
47784;SDS011;35233;55.686;37.848;2023-01-29T03:14:58;6.97;;;4.38;;
47784;SDS011;35233;55.686;37.848;2023-01-29T03:17:46;6.18;;;4.35;;
47784;SDS011;35233;55.686;37.848;2023-01-29T03:20:16;6.18;;;4.32;;
47784;SDS011;35233;55.686;37.848;2023-01-29T03:22:47;5.80;;;4.43;;
47784;SDS011;35233;55.686;37.848;2023-01-29T03:25:16;6.10;;;4.20;;
47784;SDS011;35233;55.686;37.848;2023-01-29T03:28:02;5.80;;;4.22;;
47784;SDS011;35233;55.686;37.848;2023-01-29T03:33:34;5.82;;;4.30;;
47784;SDS011;35233;55.686;37.848;2023-01-29T03:36:14;5.47;;;4.15;;
47784;SDS011;35233;55.686;37.848;2023-01-29T03:38:46;6.13;;;4.30;;
47784;SDS011;35233;55.686;37.848;2023-01-29T03:41:14;5.78;;;4.00;;
47784;SDS011;35233;55.686;37.848;2023-01-29T03:46:40;6.32;;;4.35;;
47784;SDS011;35233;55.686;37.848;2023-01-29T03:51:50;8.18;;;4.40;;
47784;SDS011;35233;55.686;37.848;2023-01-29T03:54:22;6.78;;;4.47;;
47784;SDS011;35233;55.686;37.848;2023-01-29T03:57:03;5.55;;;3.95;;
47784;SDS011;35233;55.686;37.848;2023-01-29T04:02:41;5.70;;;4.13;;
47784;SDS011;35233;55.686;37.848;2023-01-29T04:05:18;5.43;;;4.10;;
47784;SDS011;35233;55.686;37.848;2023-01-29T04:07:47;5.10;;;3.88;;
47784;SDS011;35233;55.686;37.848;2023-01-29T04:10:20;5.68;;;3.90;;
47784;SDS011;35233;55.686;37.848;2023-01-29T04:12:51;5.63;;;4.07;;
47784;SDS011;35233;55.686;37.848;2023-01-29T04:15:21;6.53;;;3.90;;
47784;SDS011;35233;55.686;37.848;2023-01-29T04:17:50;4.80;;;3.50;;
47784;SDS011;35233;55.686;37.848;2023-01-29T04:20:17;5.05;;;3.78;;
47784;SDS011;35233;55.686;37.848;2023-01-29T04:22:45;6.03;;;3.95;;
47784;SDS011;35233;55.686;37.848;2023-01-29T04:25:15;6.10;;;4.00;;
47784;SDS011;35233;55.686;37.848;2023-01-29T04:38:49;5.32;;;3.53;;
47784;SDS011;35233;55.686;37.848;2023-01-29T04:41:35;5.38;;;3.65;;
47784;SDS011;35233;55.686;37.848;2023-01-29T04:46:51;5.18;;;3.25;;
47784;SDS011;35233;55.686;37.848;2023-01-29T04:49:42;4.72;;;3.00;;
47784;SDS011;35233;55.686;37.848;2023-01-29T04:52:19;4.82;;;3.28;;
47784;SDS011;35233;55.686;37.848;2023-01-29T04:55:08;4.72;;;3.30;;
47784;SDS011;35233;55.686;37.848;2023-01-29T05:00:27;4.72;;;3.13;;
47784;SDS011;35233;55.686;37.848;2023-01-29T05:03:02;4.57;;;3.25;;
47784;SDS011;35233;55.686;37.848;2023-01-29T05:05:29;4.25;;;2.85;;
47784;SDS011;35233;55.686;37.848;2023-01-29T05:07:54;4.28;;;2.95;;
47784;SDS011;35233;55.686;37.848;2023-01-29T05:10:22;4.63;;;3.30;;
47784;SDS011;35233;55.686;37.848;2023-01-29T05:12:50;3.75;;;2.78;;
47784;SDS011;35233;55.686;37.848;2023-01-29T05:15:23;3.88;;;2.90;;
47784;SDS011;35233;55.686;37.848;2023-01-29T05:17:54;3.95;;;2.78;;
47784;SDS011;35233;55.686;37.848;2023-01-29T05:20:25;3.95;;;3.08;;
47784;SDS011;35233;55.686;37.848;2023-01-29T05:22:51;3.92;;;3.00;;
47784;SDS011;35233;55.686;37.848;2023-01-29T05:25:24;4.05;;;2.80;;
47784;SDS011;35233;55.686;37.848;2023-01-29T05:27:52;4.40;;;2.85;;
47784;SDS011;35233;55.686;37.848;2023-01-29T05:30:35;3.65;;;2.70;;
47784;SDS011;35233;55.686;37.848;2023-01-29T05:33:01;4.45;;;2.95;;
47784;SDS011;35233;55.686;37.848;2023-01-29T05:35:27;4.15;;;2.95;;
47784;SDS011;35233;55.686;37.848;2023-01-29T05:37:54;4.00;;;2.95;;
47784;SDS011;35233;55.686;37.848;2023-01-29T05:40:21;3.78;;;2.80;;
47784;SDS011;35233;55.686;37.848;2023-01-29T05:42:47;3.35;;;2.47;;
47784;SDS011;35233;55.686;37.848;2023-01-29T05:45:14;4.43;;;2.70;;
47784;SDS011;35233;55.686;37.848;2023-01-29T05:47:40;3.95;;;2.50;;
47784;SDS011;35233;55.686;37.848;2023-01-29T05:50:05;3.88;;;2.42;;
47784;SDS011;35233;55.686;37.848;2023-01-29T05:52:31;3.58;;;2.70;;
47784;SDS011;35233;55.686;37.848;2023-01-29T05:54:57;5.85;;;2.80;;
47784;SDS011;35233;55.686;37.848;2023-01-29T05:57:22;4.93;;;2.58;;
47784;SDS011;35233;55.686;37.848;2023-01-29T05:59:48;4.13;;;2.90;;
47784;SDS011;35233;55.686;37.848;2023-01-29T06:02:13;4.30;;;2.50;;
47784;SDS011;35233;55.686;37.848;2023-01-29T06:04:39;3.80;;;2.70;;
47784;SDS011;35233;55.686;37.848;2023-01-29T06:07:04;2.83;;;2.40;;
47784;SDS011;35233;55.686;37.848;2023-01-29T06:09:30;3.10;;;2.40;;
47784;SDS011;35233;55.686;37.848;2023-01-29T06:11:55;4.43;;;2.55;;
47784;SDS011;35233;55.686;37.848;2023-01-29T06:14:21;3.95;;;2.60;;
47784;SDS011;35233;55.686;37.848;2023-01-29T06:16:46;3.80;;;2.83;;
47784;SDS011;35233;55.686;37.848;2023-01-29T06:19:12;3.72;;;2.60;;
47784;SDS011;35233;55.686;37.848;2023-01-29T06:21:37;3.70;;;2.80;;
47784;SDS011;35233;55.686;37.848;2023-01-29T06:24:03;4.30;;;3.20;;
47784;SDS011;35233;55.686;37.848;2023-01-29T06:26:29;3.55;;;2.53;;
47784;SDS011;35233;55.686;37.848;2023-01-29T06:28:54;4.40;;;3.00;;
47784;SDS011;35233;55.686;37.848;2023-01-29T06:31:20;4.95;;;2.95;;
47784;SDS011;35233;55.686;37.848;2023-01-29T06:33:45;4.43;;;2.83;;
47784;SDS011;35233;55.686;37.848;2023-01-29T06:36:11;3.75;;;2.90;;
47784;SDS011;35233;55.686;37.848;2023-01-29T06:38:36;3.70;;;2.60;;
47784;SDS011;35233;55.686;37.848;2023-01-29T06:41:09;3.95;;;2.88;;
47784;SDS011;35233;55.686;37.848;2023-01-29T06:43:36;4.15;;;2.80;;
47784;SDS011;35233;55.686;37.848;2023-01-29T06:46:02;4.07;;;2.80;;
47784;SDS011;35233;55.686;37.848;2023-01-29T06:48:28;6.38;;;2.92;;
47784;SDS011;35233;55.686;37.848;2023-01-29T06:50:55;3.80;;;2.58;;
47784;SDS011;35233;55.686;37.848;2023-01-29T06:53:20;3.70;;;2.90;;
47784;SDS011;35233;55.686;37.848;2023-01-29T06:55:52;4.22;;;3.08;;
47784;SDS011;35233;55.686;37.848;2023-01-29T06:58:18;4.10;;;3.05;;
47784;SDS011;35233;55.686;37.848;2023-01-29T07:00:45;4.57;;;2.97;;
47784;SDS011;35233;55.686;37.848;2023-01-29T07:03:10;4.30;;;2.60;;
47784;SDS011;35233;55.686;37.848;2023-01-29T07:05:36;4.20;;;2.78;;
47784;SDS011;35233;55.686;37.848;2023-01-29T07:08:02;6.55;;;2.95;;
47784;SDS011;35233;55.686;37.848;2023-01-29T07:10:28;4.72;;;3.20;;
47784;SDS011;35233;55.686;37.848;2023-01-29T07:12:53;4.38;;;2.92;;
47784;SDS011;35233;55.686;37.848;2023-01-29T07:15:19;4.93;;;3.35;;
47784;SDS011;35233;55.686;37.848;2023-01-29T07:17:55;5.22;;;3.20;;
47784;SDS011;35233;55.686;37.848;2023-01-29T07:20:21;5.03;;;3.47;;
47784;SDS011;35233;55.686;37.848;2023-01-29T07:22:48;4.65;;;3.28;;
47784;SDS011;35233;55.686;37.848;2023-01-29T07:25:13;6.53;;;3.85;;
47784;SDS011;35233;55.686;37.848;2023-01-29T07:27:39;5.45;;;3.17;;
47784;SDS011;35233;55.686;37.848;2023-01-29T07:30:05;8.48;;;4.00;;
47784;SDS011;35233;55.686;37.848;2023-01-29T07:32:31;8.25;;;4.18;;
47784;SDS011;35233;55.686;37.848;2023-01-29T07:34:56;7.05;;;4.93;;
47784;SDS011;35233;55.686;37.848;2023-01-29T07:37:22;13.07;;;5.45;;
47784;SDS011;35233;55.686;37.848;2023-01-29T07:39:47;9.10;;;5.32;;
47784;SDS011;35233;55.686;37.848;2023-01-29T07:42:21;7.55;;;5.40;;
47784;SDS011;35233;55.686;37.848;2023-01-29T07:44:47;9.82;;;5.53;;
47784;SDS011;35233;55.686;37.848;2023-01-29T07:47:13;12.88;;;6.90;;
47784;SDS011;35233;55.686;37.848;2023-01-29T07:49:38;10.57;;;6.50;;
47784;SDS011;35233;55.686;37.848;2023-01-29T07:52:06;21.45;;;7.47;;
47784;SDS011;35233;55.686;37.848;2023-01-29T07:54:32;11.98;;;7.47;;
47784;SDS011;35233;55.686;37.848;2023-01-29T07:56:57;11.27;;;8.10;;
47784;SDS011;35233;55.686;37.848;2023-01-29T07:59:23;16.00;;;9.02;;
47784;SDS011;35233;55.686;37.848;2023-01-29T08:01:48;15.63;;;9.43;;
47784;SDS011;35233;55.686;37.848;2023-01-29T08:04:17;12.73;;;9.15;;
47784;SDS011;35233;55.686;37.848;2023-01-29T08:06:42;12.68;;;9.20;;
47784;SDS011;35233;55.686;37.848;2023-01-29T08:09:08;15.18;;;9.63;;
47784;SDS011;35233;55.686;37.848;2023-01-29T08:11:34;15.13;;;9.85;;
47784;SDS011;35233;55.686;37.848;2023-01-29T08:14:00;15.35;;;10.93;;
47784;SDS011;35233;55.686;37.848;2023-01-29T08:16:25;15.00;;;10.10;;
47784;SDS011;35233;55.686;37.848;2023-01-29T08:18:51;15.38;;;10.68;;
47784;SDS011;35233;55.686;37.848;2023-01-29T08:21:17;15.25;;;10.80;;
47784;SDS011;35233;55.686;37.848;2023-01-29T08:23:42;15.13;;;10.80;;
47784;SDS011;35233;55.686;37.848;2023-01-29T08:26:08;15.98;;;10.75;;
47784;SDS011;35233;55.686;37.848;2023-01-29T08:28:34;17.00;;;11.02;;
47784;SDS011;35233;55.686;37.848;2023-01-29T08:31:00;14.32;;;10.75;;
47784;SDS011;35233;55.686;37.848;2023-01-29T08:33:26;16.73;;;11.25;;
47784;SDS011;35233;55.686;37.848;2023-01-29T08:35:59;16.25;;;11.02;;
47784;SDS011;35233;55.686;37.848;2023-01-29T08:38:27;15.43;;;10.35;;
47784;SDS011;35233;55.686;37.848;2023-01-29T08:40:55;15.35;;;10.52;;
47784;SDS011;35233;55.686;37.848;2023-01-29T08:43:26;14.98;;;10.38;;
47784;SDS011;35233;55.686;37.848;2023-01-29T08:45:52;15.65;;;10.57;;
47784;SDS011;35233;55.686;37.848;2023-01-29T08:48:17;15.13;;;10.35;;
47784;SDS011;35233;55.686;37.848;2023-01-29T08:50:43;19.55;;;11.50;;
47784;SDS011;35233;55.686;37.848;2023-01-29T08:53:08;14.25;;;10.00;;
47784;SDS011;35233;55.686;37.848;2023-01-29T08:55:34;15.35;;;10.93;;
47784;SDS011;35233;55.686;37.848;2023-01-29T08:58:02;14.80;;;10.27;;
47784;SDS011;35233;55.686;37.848;2023-01-29T09:00:32;15.02;;;11.45;;
47784;SDS011;35233;55.686;37.848;2023-01-29T09:03:00;16.85;;;10.93;;
47784;SDS011;35233;55.686;37.848;2023-01-29T09:05:31;17.92;;;11.68;;
47784;SDS011;35233;55.686;37.848;2023-01-29T09:07:59;18.75;;;11.07;;
47784;SDS011;35233;55.686;37.848;2023-01-29T09:10:24;15.20;;;11.15;;
47784;SDS011;35233;55.686;37.848;2023-01-29T09:12:50;17.88;;;11.63;;
47784;SDS011;35233;55.686;37.848;2023-01-29T09:15:15;15.25;;;11.45;;
47784;SDS011;35233;55.686;37.848;2023-01-29T09:17:41;17.58;;;11.23;;
47784;SDS011;35233;55.686;37.848;2023-01-29T09:20:09;15.85;;;11.25;;
47784;SDS011;35233;55.686;37.848;2023-01-29T09:22:35;17.13;;;12.75;;
47784;SDS011;35233;55.686;37.848;2023-01-29T09:25:01;18.15;;;11.30;;
47784;SDS011;35233;55.686;37.848;2023-01-29T09:27:27;15.63;;;11.98;;
47784;SDS011;35233;55.686;37.848;2023-01-29T09:29:52;18.58;;;12.88;;
47784;SDS011;35233;55.686;37.848;2023-01-29T09:32:18;18.17;;;12.60;;
47784;SDS011;35233;55.686;37.848;2023-01-29T09:34:43;17.58;;;12.70;;
47784;SDS011;35233;55.686;37.848;2023-01-29T09:37:09;18.48;;;13.35;;
47784;SDS011;35233;55.686;37.848;2023-01-29T09:39:35;17.42;;;13.07;;
47784;SDS011;35233;55.686;37.848;2023-01-29T09:42:12;18.42;;;13.45;;
47784;SDS011;35233;55.686;37.848;2023-01-29T09:47:33;18.23;;;14.07;;
47784;SDS011;35233;55.686;37.848;2023-01-29T09:50:15;20.15;;;13.93;;
47784;SDS011;35233;55.686;37.848;2023-01-29T09:52:48;21.55;;;14.60;;
47784;SDS011;35233;55.686;37.848;2023-01-29T09:55:40;18.98;;;13.65;;
47784;SDS011;35233;55.686;37.848;2023-01-29T10:15:33;18.52;;;13.57;;
47784;SDS011;35233;55.686;37.848;2023-01-29T10:20:52;18.70;;;13.07;;
47784;SDS011;35233;55.686;37.848;2023-01-29T10:23:50;18.38;;;13.45;;
47784;SDS011;35233;55.686;37.848;2023-01-29T10:26:32;19.15;;;13.80;;
47784;SDS011;35233;55.686;37.848;2023-01-29T10:29:14;17.13;;;13.25;;
47784;SDS011;35233;55.686;37.848;2023-01-29T10:31:51;17.23;;;12.68;;
47784;SDS011;35233;55.686;37.848;2023-01-29T10:34:44;17.90;;;12.18;;
47784;SDS011;35233;55.686;37.848;2023-01-29T10:37:17;16.90;;;12.10;;
47784;SDS011;35233;55.686;37.848;2023-01-29T10:39:48;15.93;;;11.68;;
47784;SDS011;35233;55.686;37.848;2023-01-29T10:50:44;15.60;;;10.57;;
47784;SDS011;35233;55.686;37.848;2023-01-29T10:55:57;15.48;;;10.63;;
47784;SDS011;35233;55.686;37.848;2023-01-29T11:01:19;14.25;;;10.00;;
47784;SDS011;35233;55.686;37.848;2023-01-29T11:03:45;15.15;;;9.63;;
47784;SDS011;35233;55.686;37.848;2023-01-29T11:06:33;14.40;;;10.10;;
47784;SDS011;35233;55.686;37.848;2023-01-29T11:09:17;13.57;;;10.05;;
47784;SDS011;35233;55.686;37.848;2023-01-29T11:17:06;14.60;;;9.68;;
47784;SDS011;35233;55.686;37.848;2023-01-29T11:19:40;12.98;;;9.55;;
47784;SDS011;35233;55.686;37.848;2023-01-29T11:22:15;11.73;;;8.95;;
47784;SDS011;35233;55.686;37.848;2023-01-29T11:24:46;12.85;;;8.80;;
47784;SDS011;35233;55.686;37.848;2023-01-29T11:27:34;13.73;;;9.60;;
47784;SDS011;35233;55.686;37.848;2023-01-29T11:30:14;12.88;;;8.93;;
47784;SDS011;35233;55.686;37.848;2023-01-29T11:35:43;13.18;;;9.35;;
47784;SDS011;35233;55.686;37.848;2023-01-29T11:38:20;12.30;;;8.38;;
47784;SDS011;35233;55.686;37.848;2023-01-29T11:40:48;11.20;;;8.52;;
47784;SDS011;35233;55.686;37.848;2023-01-29T11:46:01;10.93;;;8.52;;
47784;SDS011;35233;55.686;37.848;2023-01-29T11:48:39;12.02;;;8.85;;
47784;SDS011;35233;55.686;37.848;2023-01-29T11:51:09;11.07;;;8.10;;
47784;SDS011;35233;55.686;37.848;2023-01-29T11:53:44;11.48;;;8.55;;
47784;SDS011;35233;55.686;37.848;2023-01-29T11:56:17;11.43;;;8.27;;
47784;SDS011;35233;55.686;37.848;2023-01-29T11:58:50;11.25;;;8.32;;
47784;SDS011;35233;55.686;37.848;2023-01-29T12:01:22;11.45;;;8.07;;
47784;SDS011;35233;55.686;37.848;2023-01-29T12:04:03;11.27;;;8.05;;
47784;SDS011;35233;55.686;37.848;2023-01-29T12:07:01;11.52;;;8.10;;
47784;SDS011;35233;55.686;37.848;2023-01-29T12:09:26;9.90;;;7.47;;
47784;SDS011;35233;55.686;37.848;2023-01-29T12:11:55;12.68;;;9.10;;
47784;SDS011;35233;55.686;37.848;2023-01-29T12:17:52;12.98;;;8.65;;
47784;SDS011;35233;55.686;37.848;2023-01-29T12:20:24;14.95;;;8.88;;
47784;SDS011;35233;55.686;37.848;2023-01-29T12:23:02;11.88;;;8.90;;
47784;SDS011;35233;55.686;37.848;2023-01-29T12:28:28;11.90;;;7.97;;
47784;SDS011;35233;55.686;37.848;2023-01-29T12:33:42;20.50;;;9.75;;
47784;SDS011;35233;55.686;37.848;2023-01-29T12:36:20;19.58;;;10.55;;
47784;SDS011;35233;55.686;37.848;2023-01-29T12:38:51;16.80;;;10.07;;
47784;SDS011;35233;55.686;37.848;2023-01-29T12:41:23;19.27;;;10.50;;
47784;SDS011;35233;55.686;37.848;2023-01-29T12:44:13;17.23;;;10.38;;
47784;SDS011;35233;55.686;37.848;2023-01-29T12:46:45;19.45;;;10.30;;
47784;SDS011;35233;55.686;37.848;2023-01-29T12:49:31;17.95;;;10.45;;
47784;SDS011;35233;55.686;37.848;2023-01-29T12:52:12;22.37;;;11.47;;
47784;SDS011;35233;55.686;37.848;2023-01-29T12:54:47;18.00;;;10.13;;
47784;SDS011;35233;55.686;37.848;2023-01-29T13:00:43;20.75;;;11.40;;
47784;SDS011;35233;55.686;37.848;2023-01-29T13:10:52;16.48;;;10.15;;
47784;SDS011;35233;55.686;37.848;2023-01-29T13:16:16;17.35;;;9.38;;
47784;SDS011;35233;55.686;37.848;2023-01-29T13:18:49;15.80;;;8.65;;
47784;SDS011;35233;55.686;37.848;2023-01-29T13:21:24;16.00;;;9.45;;
47784;SDS011;35233;55.686;37.848;2023-01-29T13:24:19;17.85;;;8.80;;
47784;SDS011;35233;55.686;37.848;2023-01-29T13:26:46;13.13;;;7.88;;
47784;SDS011;35233;55.686;37.848;2023-01-29T13:29:25;13.23;;;7.75;;
47784;SDS011;35233;55.686;37.848;2023-01-29T13:32:00;11.95;;;7.28;;
47784;SDS011;35233;55.686;37.848;2023-01-29T13:34:32;11.75;;;6.78;;
47784;SDS011;35233;55.686;37.848;2023-01-29T13:37:01;12.88;;;6.50;;
47784;SDS011;35233;55.686;37.848;2023-01-29T13:39:35;12.30;;;6.25;;
47784;SDS011;35233;55.686;37.848;2023-01-29T13:42:15;10.48;;;6.03;;
47784;SDS011;35233;55.686;37.848;2023-01-29T13:44:47;13.90;;;5.90;;
47784;SDS011;35233;55.686;37.848;2023-01-29T13:50:02;10.43;;;5.90;;
47784;SDS011;35233;55.686;37.848;2023-01-29T13:52:54;8.70;;;6.22;;
47784;SDS011;35233;55.686;37.848;2023-01-29T13:55:27;9.05;;;6.10;;
47784;SDS011;35233;55.686;37.848;2023-01-29T13:57:56;9.98;;;5.88;;
47784;SDS011;35233;55.686;37.848;2023-01-29T14:05:38;11.32;;;6.07;;
47784;SDS011;35233;55.686;37.848;2023-01-29T14:10:39;8.93;;;5.80;;
47784;SDS011;35233;55.686;37.848;2023-01-29T14:15:48;11.52;;;5.75;;
47784;SDS011;35233;55.686;37.848;2023-01-29T14:18:33;9.85;;;5.13;;
47784;SDS011;35233;55.686;37.848;2023-01-29T14:21:04;7.97;;;5.45;;
47784;SDS011;35233;55.686;37.848;2023-01-29T14:23:50;10.48;;;6.03;;
47784;SDS011;35233;55.686;37.848;2023-01-29T14:31:30;11.30;;;5.93;;
47784;SDS011;35233;55.686;37.848;2023-01-29T14:34:05;8.38;;;5.65;;
47784;SDS011;35233;55.686;37.848;2023-01-29T14:36:42;9.68;;;5.95;;
47784;SDS011;35233;55.686;37.848;2023-01-29T14:39:18;8.65;;;5.30;;
47784;SDS011;35233;55.686;37.848;2023-01-29T14:41:48;8.60;;;5.88;;
47784;SDS011;35233;55.686;37.848;2023-01-29T14:50:05;9.70;;;5.70;;
47784;SDS011;35233;55.686;37.848;2023-01-29T14:52:52;9.27;;;6.28;;
47784;SDS011;35233;55.686;37.848;2023-01-29T14:55:28;10.82;;;6.38;;
47784;SDS011;35233;55.686;37.848;2023-01-29T14:58:01;11.45;;;6.82;;
47784;SDS011;35233;55.686;37.848;2023-01-29T15:00:29;9.35;;;6.22;;
47784;SDS011;35233;55.686;37.848;2023-01-29T15:02:59;8.80;;;6.20;;
47784;SDS011;35233;55.686;37.848;2023-01-29T15:05:28;9.13;;;6.43;;
47784;SDS011;35233;55.686;37.848;2023-01-29T15:08:07;8.82;;;6.18;;
47784;SDS011;35233;55.686;37.848;2023-01-29T15:10:44;9.95;;;6.38;;
47784;SDS011;35233;55.686;37.848;2023-01-29T15:16:21;11.23;;;7.38;;
47784;SDS011;35233;55.686;37.848;2023-01-29T15:22:04;12.63;;;7.07;;
47784;SDS011;35233;55.686;37.848;2023-01-29T15:24:35;10.48;;;7.18;;
47784;SDS011;35233;55.686;37.848;2023-01-29T15:27:02;10.65;;;7.10;;
47784;SDS011;35233;55.686;37.848;2023-01-29T15:29:28;10.40;;;7.43;;
47784;SDS011;35233;55.686;37.848;2023-01-29T15:31:54;11.30;;;7.85;;
47784;SDS011;35233;55.686;37.848;2023-01-29T15:34:20;11.85;;;8.52;;
47784;SDS011;35233;55.686;37.848;2023-01-29T15:36:47;12.07;;;7.95;;
47784;SDS011;35233;55.686;37.848;2023-01-29T15:39:15;12.13;;;7.72;;
47784;SDS011;35233;55.686;37.848;2023-01-29T15:41:40;10.30;;;7.22;;
47784;SDS011;35233;55.686;37.848;2023-01-29T15:44:09;9.82;;;7.28;;
47784;SDS011;35233;55.686;37.848;2023-01-29T15:46:39;14.05;;;7.57;;
47784;SDS011;35233;55.686;37.848;2023-01-29T15:49:09;11.05;;;7.30;;
47784;SDS011;35233;55.686;37.848;2023-01-29T15:51:44;11.55;;;7.90;;
47784;SDS011;35233;55.686;37.848;2023-01-29T15:54:12;9.98;;;7.38;;
47784;SDS011;35233;55.686;37.848;2023-01-29T15:56:45;10.57;;;7.40;;
47784;SDS011;35233;55.686;37.848;2023-01-29T15:59:36;11.02;;;7.32;;
47784;SDS011;35233;55.686;37.848;2023-01-29T16:02:16;11.68;;;7.35;;
47784;SDS011;35233;55.686;37.848;2023-01-29T16:05:03;10.07;;;6.85;;
47784;SDS011;35233;55.686;37.848;2023-01-29T16:07:31;11.30;;;7.53;;
47784;SDS011;35233;55.686;37.848;2023-01-29T16:09:57;11.15;;;7.45;;
47784;SDS011;35233;55.686;37.848;2023-01-29T16:12:23;12.38;;;7.75;;
47784;SDS011;35233;55.686;37.848;2023-01-29T16:14:49;10.25;;;6.35;;
47784;SDS011;35233;55.686;37.848;2023-01-29T16:17:33;11.07;;;6.95;;
47784;SDS011;35233;55.686;37.848;2023-01-29T16:20:03;9.18;;;6.60;;
47784;SDS011;35233;55.686;37.848;2023-01-29T16:22:37;11.00;;;7.03;;
47784;SDS011;35233;55.686;37.848;2023-01-29T16:25:07;10.40;;;6.82;;
47784;SDS011;35233;55.686;37.848;2023-01-29T16:27:38;9.85;;;6.68;;
47784;SDS011;35233;55.686;37.848;2023-01-29T16:30:08;10.95;;;6.78;;
47784;SDS011;35233;55.686;37.848;2023-01-29T16:32:34;9.75;;;6.43;;
47784;SDS011;35233;55.686;37.848;2023-01-29T16:35:00;11.75;;;6.40;;
47784;SDS011;35233;55.686;37.848;2023-01-29T16:37:30;9.20;;;5.88;;
47784;SDS011;35233;55.686;37.848;2023-01-29T16:40:00;12.77;;;6.50;;
47784;SDS011;35233;55.686;37.848;2023-01-29T16:42:37;10.32;;;5.85;;
47784;SDS011;35233;55.686;37.848;2023-01-29T16:45:05;11.60;;;6.63;;
47784;SDS011;35233;55.686;37.848;2023-01-29T16:47:58;10.35;;;5.82;;
47784;SDS011;35233;55.686;37.848;2023-01-29T16:50:46;10.10;;;5.88;;
47784;SDS011;35233;55.686;37.848;2023-01-29T16:55:43;10.02;;;6.03;;
47784;SDS011;35233;55.686;37.848;2023-01-29T16:58:11;11.32;;;6.80;;
47784;SDS011;35233;55.686;37.848;2023-01-29T17:00:44;17.58;;;6.72;;
47784;SDS011;35233;55.686;37.848;2023-01-29T17:03:13;10.05;;;6.53;;
47784;SDS011;35233;55.686;37.848;2023-01-29T17:05:40;11.35;;;5.70;;
47784;SDS011;35233;55.686;37.848;2023-01-29T17:08:06;9.40;;;6.30;;
47784;SDS011;35233;55.686;37.848;2023-01-29T17:10:33;12.38;;;6.28;;
47784;SDS011;35233;55.686;37.848;2023-01-29T17:13:01;9.70;;;5.93;;
47784;SDS011;35233;55.686;37.848;2023-01-29T17:15:31;12.30;;;6.28;;
47784;SDS011;35233;55.686;37.848;2023-01-29T17:18:00;10.27;;;5.70;;